sensor_id;sensor_type;location;lat;lon;timestamp;temperature;humidity
29003;DHT22;16102;57.138;-2.118;2023-03-31T00:00:21;11.40;1.00
29003;DHT22;16102;57.138;-2.118;2023-03-31T00:02:48;11.40;1.00
29003;DHT22;16102;57.138;-2.118;2023-03-31T00:05:19;11.40;1.00
29003;DHT22;16102;57.138;-2.118;2023-03-31T00:07:54;11.40;1.00
29003;DHT22;16102;57.138;-2.118;2023-03-31T00:10:31;11.40;1.00
29003;DHT22;16102;57.138;-2.118;2023-03-31T00:13:00;11.40;1.00
29003;DHT22;16102;57.138;-2.118;2023-03-31T00:15:28;11.40;1.00
29003;DHT22;16102;57.138;-2.118;2023-03-31T00:17:56;11.30;1.00
29003;DHT22;16102;57.138;-2.118;2023-03-31T00:20:26;11.30;1.00
29003;DHT22;16102;57.138;-2.118;2023-03-31T00:22:54;11.30;1.00
29003;DHT22;16102;57.138;-2.118;2023-03-31T00:25:23;11.20;1.00
29003;DHT22;16102;57.138;-2.118;2023-03-31T00:27:50;11.20;1.00
29003;DHT22;16102;57.138;-2.118;2023-03-31T00:30:18;11.20;1.00
29003;DHT22;16102;57.138;-2.118;2023-03-31T00:32:45;11.30;1.00
29003;DHT22;16102;57.138;-2.118;2023-03-31T00:35:12;11.20;1.00
29003;DHT22;16102;57.138;-2.118;2023-03-31T00:37:39;11.30;1.00
29003;DHT22;16102;57.138;-2.118;2023-03-31T00:40:09;11.20;1.00
29003;DHT22;16102;57.138;-2.118;2023-03-31T00:42:43;11.20;1.00
29003;DHT22;16102;57.138;-2.118;2023-03-31T00:50:29;11.30;1.00
29003;DHT22;16102;57.138;-2.118;2023-03-31T00:53:05;11.20;1.00
29003;DHT22;16102;57.138;-2.118;2023-03-31T00:55:45;11.30;1.00
29003;DHT22;16102;57.138;-2.118;2023-03-31T00:58:13;11.30;1.00
29003;DHT22;16102;57.138;-2.118;2023-03-31T01:00:46;11.30;1.00
29003;DHT22;16102;57.138;-2.118;2023-03-31T01:03:15;11.30;1.00
29003;DHT22;16102;57.138;-2.118;2023-03-31T01:05:46;11.30;1.00
29003;DHT22;16102;57.138;-2.118;2023-03-31T01:08:18;11.20;1.00
29003;DHT22;16102;57.138;-2.118;2023-03-31T01:10:51;11.20;1.00
29003;DHT22;16102;57.138;-2.118;2023-03-31T01:13:19;11.20;1.00
29003;DHT22;16102;57.138;-2.118;2023-03-31T01:15:47;11.20;1.00
29003;DHT22;16102;57.138;-2.118;2023-03-31T01:18:15;11.20;1.00
29003;DHT22;16102;57.138;-2.118;2023-03-31T01:28:53;11.10;1.00
29003;DHT22;16102;57.138;-2.118;2023-03-31T01:34:47;11.20;1.00
29003;DHT22;16102;57.138;-2.118;2023-03-31T01:47:57;11.20;1.00
29003;DHT22;16102;57.138;-2.118;2023-03-31T01:50:35;11.20;1.00
29003;DHT22;16102;57.138;-2.118;2023-03-31T01:56:09;11.20;1.00
29003;DHT22;16102;57.138;-2.118;2023-03-31T01:58:43;11.20;1.00
29003;DHT22;16102;57.138;-2.118;2023-03-31T02:01:21;11.20;1.00
29003;DHT22;16102;57.138;-2.118;2023-03-31T02:04:07;11.20;1.00
29003;DHT22;16102;57.138;-2.118;2023-03-31T02:06:40;11.20;1.00
29003;DHT22;16102;57.138;-2.118;2023-03-31T02:09:15;11.20;1.00
29003;DHT22;16102;57.138;-2.118;2023-03-31T02:11:43;11.20;1.00
29003;DHT22;16102;57.138;-2.118;2023-03-31T02:14:15;11.10;1.00
29003;DHT22;16102;57.138;-2.118;2023-03-31T02:16:45;11.10;1.00
29003;DHT22;16102;57.138;-2.118;2023-03-31T02:19:18;10.90;1.00
29003;DHT22;16102;57.138;-2.118;2023-03-31T02:21:47;10.90;1.00
29003;DHT22;16102;57.138;-2.118;2023-03-31T02:24:18;10.90;1.00
29003;DHT22;16102;57.138;-2.118;2023-03-31T02:26:53;10.90;1.00
29003;DHT22;16102;57.138;-2.118;2023-03-31T02:29:22;11.00;1.00
29003;DHT22;16102;57.138;-2.118;2023-03-31T02:32:03;11.00;1.00
29003;DHT22;16102;57.138;-2.118;2023-03-31T02:34:33;11.00;1.00
29003;DHT22;16102;57.138;-2.118;2023-03-31T02:37:00;10.90;1.00
29003;DHT22;16102;57.138;-2.118;2023-03-31T02:39:34;10.90;1.00
29003;DHT22;16102;57.138;-2.118;2023-03-31T02:42:02;10.80;1.00
29003;DHT22;16102;57.138;-2.118;2023-03-31T02:44:36;10.80;1.00
29003;DHT22;16102;57.138;-2.118;2023-03-31T02:47:08;10.80;1.00
29003;DHT22;16102;57.138;-2.118;2023-03-31T02:49:40;10.70;1.00
29003;DHT22;16102;57.138;-2.118;2023-03-31T03:06:04;10.20;19.00
29003;DHT22;16102;57.138;-2.118;2023-03-31T03:14:08;10.00;69.70
29003;DHT22;16102;57.138;-2.118;2023-03-31T03:16:41;9.90;92.40
29003;DHT22;16102;57.138;-2.118;2023-03-31T03:19:21;9.90;99.90
29003;DHT22;16102;57.138;-2.118;2023-03-31T03:21:48;9.80;99.90
29003;DHT22;16102;57.138;-2.118;2023-03-31T03:24:16;9.70;99.90
29003;DHT22;16102;57.138;-2.118;2023-03-31T03:26:44;9.40;99.90
29003;DHT22;16102;57.138;-2.118;2023-03-31T03:29:11;9.10;99.90
29003;DHT22;16102;57.138;-2.118;2023-03-31T03:31:42;9.00;99.90
29003;DHT22;16102;57.138;-2.118;2023-03-31T03:34:09;8.90;99.90
29003;DHT22;16102;57.138;-2.118;2023-03-31T03:36:37;8.90;99.90
29003;DHT22;16102;57.138;-2.118;2023-03-31T03:39:06;8.90;99.90
29003;DHT22;16102;57.138;-2.118;2023-03-31T03:41:33;8.90;1.00
29003;DHT22;16102;57.138;-2.118;2023-03-31T03:44:00;9.00;1.00
29003;DHT22;16102;57.138;-2.118;2023-03-31T03:46:27;8.90;1.00
29003;DHT22;16102;57.138;-2.118;2023-03-31T03:48:54;9.00;1.00
29003;DHT22;16102;57.138;-2.118;2023-03-31T03:51:22;8.90;1.00
29003;DHT22;16102;57.138;-2.118;2023-03-31T03:53:49;8.90;1.00
29003;DHT22;16102;57.138;-2.118;2023-03-31T03:56:16;9.00;1.00
29003;DHT22;16102;57.138;-2.118;2023-03-31T03:58:43;9.00;1.00
29003;DHT22;16102;57.138;-2.118;2023-03-31T04:01:10;9.00;1.00
29003;DHT22;16102;57.138;-2.118;2023-03-31T04:03:37;8.90;1.00
29003;DHT22;16102;57.138;-2.118;2023-03-31T04:06:04;8.80;1.00
29003;DHT22;16102;57.138;-2.118;2023-03-31T04:08:31;8.90;1.00
29003;DHT22;16102;57.138;-2.118;2023-03-31T04:10:58;9.00;1.00
29003;DHT22;16102;57.138;-2.118;2023-03-31T04:13:25;8.90;1.00
29003;DHT22;16102;57.138;-2.118;2023-03-31T04:15:52;8.90;1.00
29003;DHT22;16102;57.138;-2.118;2023-03-31T04:18:19;8.90;1.00
29003;DHT22;16102;57.138;-2.118;2023-03-31T04:20:50;8.90;1.00
29003;DHT22;16102;57.138;-2.118;2023-03-31T04:23:34;8.90;1.00
29003;DHT22;16102;57.138;-2.118;2023-03-31T04:26:04;8.90;1.00
29003;DHT22;16102;57.138;-2.118;2023-03-31T04:28:35;9.00;1.00
29003;DHT22;16102;57.138;-2.118;2023-03-31T04:31:03;9.00;1.00
29003;DHT22;16102;57.138;-2.118;2023-03-31T04:33:31;9.00;1.00
29003;DHT22;16102;57.138;-2.118;2023-03-31T04:36:05;8.90;1.00
29003;DHT22;16102;57.138;-2.118;2023-03-31T04:38:50;8.90;1.00
29003;DHT22;16102;57.138;-2.118;2023-03-31T04:41:23;9.00;1.80
29003;DHT22;16102;57.138;-2.118;2023-03-31T04:43:50;9.20;12.20
29003;DHT22;16102;57.138;-2.118;2023-03-31T04:46:17;9.20;18.70
29003;DHT22;16102;57.138;-2.118;2023-03-31T04:48:44;9.30;1.00
29003;DHT22;16102;57.138;-2.118;2023-03-31T04:51:11;9.30;1.00
29003;DHT22;16102;57.138;-2.118;2023-03-31T04:53:41;9.20;1.00
29003;DHT22;16102;57.138;-2.118;2023-03-31T04:56:08;9.30;1.00
29003;DHT22;16102;57.138;-2.118;2023-03-31T04:58:35;9.30;1.00
29003;DHT22;16102;57.138;-2.118;2023-03-31T05:01:02;9.40;1.00
29003;DHT22;16102;57.138;-2.118;2023-03-31T05:03:32;9.50;1.00
29003;DHT22;16102;57.138;-2.118;2023-03-31T05:05:59;9.60;1.00
29003;DHT22;16102;57.138;-2.118;2023-03-31T05:08:26;9.60;1.00
29003;DHT22;16102;57.138;-2.118;2023-03-31T05:10:53;9.60;1.00
29003;DHT22;16102;57.138;-2.118;2023-03-31T05:13:20;9.70;1.00
29003;DHT22;16102;57.138;-2.118;2023-03-31T05:15:48;9.70;1.00
29003;DHT22;16102;57.138;-2.118;2023-03-31T05:18:17;9.70;1.00
29003;DHT22;16102;57.138;-2.118;2023-03-31T05:20:44;9.60;1.00
29003;DHT22;16102;57.138;-2.118;2023-03-31T05:23:11;9.60;1.00
29003;DHT22;16102;57.138;-2.118;2023-03-31T05:25:38;9.60;1.00
29003;DHT22;16102;57.138;-2.118;2023-03-31T05:28:05;9.60;1.00
29003;DHT22;16102;57.138;-2.118;2023-03-31T05:30:32;9.50;1.00
29003;DHT22;16102;57.138;-2.118;2023-03-31T05:32:59;9.60;1.00
29003;DHT22;16102;57.138;-2.118;2023-03-31T05:35:26;9.60;1.00
29003;DHT22;16102;57.138;-2.118;2023-03-31T05:37:53;9.60;1.00
29003;DHT22;16102;57.138;-2.118;2023-03-31T05:40:20;9.60;1.00
29003;DHT22;16102;57.138;-2.118;2023-03-31T05:42:47;9.60;1.00
29003;DHT22;16102;57.138;-2.118;2023-03-31T05:45:14;9.60;1.00
29003;DHT22;16102;57.138;-2.118;2023-03-31T05:47:41;9.60;1.00
29003;DHT22;16102;57.138;-2.118;2023-03-31T05:50:08;9.60;1.00
29003;DHT22;16102;57.138;-2.118;2023-03-31T05:52:38;9.60;1.00
29003;DHT22;16102;57.138;-2.118;2023-03-31T05:55:05;9.60;1.00
29003;DHT22;16102;57.138;-2.118;2023-03-31T05:57:32;9.60;1.00
29003;DHT22;16102;57.138;-2.118;2023-03-31T05:59:59;9.60;1.00
29003;DHT22;16102;57.138;-2.118;2023-03-31T06:02:26;9.70;1.00
29003;DHT22;16102;57.138;-2.118;2023-03-31T06:04:53;9.70;1.00
29003;DHT22;16102;57.138;-2.118;2023-03-31T06:07:23;9.80;1.00
29003;DHT22;16102;57.138;-2.118;2023-03-31T06:09:50;9.80;1.00
29003;DHT22;16102;57.138;-2.118;2023-03-31T06:12:18;9.80;1.00
29003;DHT22;16102;57.138;-2.118;2023-03-31T06:14:44;9.70;1.00
29003;DHT22;16102;57.138;-2.118;2023-03-31T06:17:11;9.60;1.00
29003;DHT22;16102;57.138;-2.118;2023-03-31T06:19:38;9.60;1.00
29003;DHT22;16102;57.138;-2.118;2023-03-31T06:22:05;9.70;1.00
29003;DHT22;16102;57.138;-2.118;2023-03-31T06:24:32;9.70;1.00
29003;DHT22;16102;57.138;-2.118;2023-03-31T06:26:59;9.70;1.00
29003;DHT22;16102;57.138;-2.118;2023-03-31T06:29:27;9.80;1.00
29003;DHT22;16102;57.138;-2.118;2023-03-31T06:31:54;9.80;1.00
29003;DHT22;16102;57.138;-2.118;2023-03-31T06:34:21;9.80;1.00
29003;DHT22;16102;57.138;-2.118;2023-03-31T06:36:48;9.70;1.00
29003;DHT22;16102;57.138;-2.118;2023-03-31T06:39:14;9.80;1.00
29003;DHT22;16102;57.138;-2.118;2023-03-31T06:41:41;9.80;1.00
29003;DHT22;16102;57.138;-2.118;2023-03-31T06:44:09;9.80;1.00
29003;DHT22;16102;57.138;-2.118;2023-03-31T06:46:36;9.80;1.00
29003;DHT22;16102;57.138;-2.118;2023-03-31T06:49:03;9.80;1.00
29003;DHT22;16102;57.138;-2.118;2023-03-31T06:51:30;9.80;1.00
29003;DHT22;16102;57.138;-2.118;2023-03-31T06:53:58;9.80;1.00
29003;DHT22;16102;57.138;-2.118;2023-03-31T06:56:25;9.80;1.00
29003;DHT22;16102;57.138;-2.118;2023-03-31T06:58:53;9.70;1.00
29003;DHT22;16102;57.138;-2.118;2023-03-31T07:01:20;9.70;1.00
29003;DHT22;16102;57.138;-2.118;2023-03-31T07:03:48;9.70;1.00
29003;DHT22;16102;57.138;-2.118;2023-03-31T07:06:15;9.70;1.00
29003;DHT22;16102;57.138;-2.118;2023-03-31T07:08:42;9.80;1.00
29003;DHT22;16102;57.138;-2.118;2023-03-31T07:11:09;9.90;1.00
29003;DHT22;16102;57.138;-2.118;2023-03-31T07:13:36;9.80;1.00
29003;DHT22;16102;57.138;-2.118;2023-03-31T07:16:03;9.80;1.00
29003;DHT22;16102;57.138;-2.118;2023-03-31T07:18:31;9.80;1.00
29003;DHT22;16102;57.138;-2.118;2023-03-31T07:21:01;9.80;1.00
29003;DHT22;16102;57.138;-2.118;2023-03-31T07:23:28;9.90;1.00
29003;DHT22;16102;57.138;-2.118;2023-03-31T07:25:55;10.00;1.00
29003;DHT22;16102;57.138;-2.118;2023-03-31T07:28:22;10.00;1.00
29003;DHT22;16102;57.138;-2.118;2023-03-31T07:30:49;10.00;1.00
29003;DHT22;16102;57.138;-2.118;2023-03-31T07:33:16;10.00;1.00
29003;DHT22;16102;57.138;-2.118;2023-03-31T07:35:43;10.10;1.00
29003;DHT22;16102;57.138;-2.118;2023-03-31T07:38:13;10.00;1.00
29003;DHT22;16102;57.138;-2.118;2023-03-31T07:40:42;10.00;1.00
29003;DHT22;16102;57.138;-2.118;2023-03-31T07:43:11;9.90;1.00
29003;DHT22;16102;57.138;-2.118;2023-03-31T07:45:38;9.90;1.00
29003;DHT22;16102;57.138;-2.118;2023-03-31T07:48:06;9.90;1.00
29003;DHT22;16102;57.138;-2.118;2023-03-31T07:50:33;9.80;1.00
29003;DHT22;16102;57.138;-2.118;2023-03-31T07:53:00;9.80;1.00
29003;DHT22;16102;57.138;-2.118;2023-03-31T07:55:27;9.80;1.00
29003;DHT22;16102;57.138;-2.118;2023-03-31T07:57:55;9.80;1.00
29003;DHT22;16102;57.138;-2.118;2023-03-31T08:00:22;9.80;1.00
29003;DHT22;16102;57.138;-2.118;2023-03-31T08:02:49;9.80;1.00
29003;DHT22;16102;57.138;-2.118;2023-03-31T08:05:19;9.90;1.00
29003;DHT22;16102;57.138;-2.118;2023-03-31T08:07:48;9.90;1.00
29003;DHT22;16102;57.138;-2.118;2023-03-31T08:10:19;9.90;1.00
29003;DHT22;16102;57.138;-2.118;2023-03-31T08:12:47;9.90;1.00
29003;DHT22;16102;57.138;-2.118;2023-03-31T08:15:14;9.90;1.00
29003;DHT22;16102;57.138;-2.118;2023-03-31T08:17:41;9.90;1.00
29003;DHT22;16102;57.138;-2.118;2023-03-31T08:20:08;9.80;1.00
29003;DHT22;16102;57.138;-2.118;2023-03-31T08:22:37;9.80;1.00
29003;DHT22;16102;57.138;-2.118;2023-03-31T08:25:06;9.80;1.00
29003;DHT22;16102;57.138;-2.118;2023-03-31T08:27:35;9.70;1.00
29003;DHT22;16102;57.138;-2.118;2023-03-31T08:30:04;9.80;1.00
29003;DHT22;16102;57.138;-2.118;2023-03-31T08:32:33;9.80;1.00
29003;DHT22;16102;57.138;-2.118;2023-03-31T08:35:00;9.80;1.00
29003;DHT22;16102;57.138;-2.118;2023-03-31T08:37:27;9.80;1.00
29003;DHT22;16102;57.138;-2.118;2023-03-31T08:39:55;9.80;1.00
29003;DHT22;16102;57.138;-2.118;2023-03-31T08:42:41;9.90;1.00
29003;DHT22;16102;57.138;-2.118;2023-03-31T08:45:22;9.90;1.00
29003;DHT22;16102;57.138;-2.118;2023-03-31T08:47:54;9.90;1.00
29003;DHT22;16102;57.138;-2.118;2023-03-31T08:50:29;9.90;1.00
29003;DHT22;16102;57.138;-2.118;2023-03-31T08:55:43;9.90;1.00
29003;DHT22;16102;57.138;-2.118;2023-03-31T09:01:15;9.80;1.00
29003;DHT22;16102;57.138;-2.118;2023-03-31T09:09:39;9.70;1.00
29003;DHT22;16102;57.138;-2.118;2023-03-31T09:12:15;9.70;1.00
29003;DHT22;16102;57.138;-2.118;2023-03-31T09:14:59;9.60;1.00
29003;DHT22;16102;57.138;-2.118;2023-03-31T09:17:30;9.70;1.00
29003;DHT22;16102;57.138;-2.118;2023-03-31T09:20:22;9.70;1.00
29003;DHT22;16102;57.138;-2.118;2023-03-31T09:22:52;9.80;1.00
29003;DHT22;16102;57.138;-2.118;2023-03-31T09:25:32;9.80;1.00
29003;DHT22;16102;57.138;-2.118;2023-03-31T09:28:02;9.70;1.00
29003;DHT22;16102;57.138;-2.118;2023-03-31T09:30:34;9.80;1.00
29003;DHT22;16102;57.138;-2.118;2023-03-31T09:33:44;9.80;1.00
29003;DHT22;16102;57.138;-2.118;2023-03-31T09:36:15;9.90;1.00
29003;DHT22;16102;57.138;-2.118;2023-03-31T09:38:44;9.90;1.00
29003;DHT22;16102;57.138;-2.118;2023-03-31T09:41:13;9.90;1.00
29003;DHT22;16102;57.138;-2.118;2023-03-31T09:43:41;9.90;1.00
29003;DHT22;16102;57.138;-2.118;2023-03-31T09:46:30;9.90;1.00
29003;DHT22;16102;57.138;-2.118;2023-03-31T09:49:09;10.00;1.00
29003;DHT22;16102;57.138;-2.118;2023-03-31T09:51:41;10.00;1.00
29003;DHT22;16102;57.138;-2.118;2023-03-31T09:54:26;10.00;1.00
29003;DHT22;16102;57.138;-2.118;2023-03-31T09:56:55;10.00;1.00
29003;DHT22;16102;57.138;-2.118;2023-03-31T09:59:30;10.00;1.00
29003;DHT22;16102;57.138;-2.118;2023-03-31T10:02:00;10.00;1.00
29003;DHT22;16102;57.138;-2.118;2023-03-31T10:04:33;9.90;1.00
29003;DHT22;16102;57.138;-2.118;2023-03-31T10:07:03;9.90;1.00
29003;DHT22;16102;57.138;-2.118;2023-03-31T10:09:32;10.00;1.00
29003;DHT22;16102;57.138;-2.118;2023-03-31T10:12:08;10.00;1.00
29003;DHT22;16102;57.138;-2.118;2023-03-31T10:14:45;10.00;1.00
29003;DHT22;16102;57.138;-2.118;2023-03-31T10:17:18;10.10;1.00
29003;DHT22;16102;57.138;-2.118;2023-03-31T10:19:51;10.10;1.00
29003;DHT22;16102;57.138;-2.118;2023-03-31T10:24:56;10.10;99.90
29003;DHT22;16102;57.138;-2.118;2023-03-31T10:27:33;10.10;99.90
29003;DHT22;16102;57.138;-2.118;2023-03-31T10:30:03;10.10;99.90
29003;DHT22;16102;57.138;-2.118;2023-03-31T10:32:40;10.10;99.90
29003;DHT22;16102;57.138;-2.118;2023-03-31T10:35:22;10.20;99.90
29003;DHT22;16102;57.138;-2.118;2023-03-31T10:37:54;10.30;99.90
29003;DHT22;16102;57.138;-2.118;2023-03-31T10:40:27;10.20;99.90
29003;DHT22;16102;57.138;-2.118;2023-03-31T10:43:19;10.20;99.90
29003;DHT22;16102;57.138;-2.118;2023-03-31T10:45:56;10.30;99.90
29003;DHT22;16102;57.138;-2.118;2023-03-31T10:51:11;10.10;99.90
29003;DHT22;16102;57.138;-2.118;2023-03-31T10:53:45;10.10;99.90
29003;DHT22;16102;57.138;-2.118;2023-03-31T10:56:41;10.10;99.90
29003;DHT22;16102;57.138;-2.118;2023-03-31T11:08:24;10.10;99.90
29003;DHT22;16102;57.138;-2.118;2023-03-31T11:19:15;10.20;99.90
29003;DHT22;16102;57.138;-2.118;2023-03-31T11:22:00;10.20;99.90
29003;DHT22;16102;57.138;-2.118;2023-03-31T11:27:38;10.30;99.90
29003;DHT22;16102;57.138;-2.118;2023-03-31T11:44:04;10.30;99.90
29003;DHT22;16102;57.138;-2.118;2023-03-31T11:46:42;10.20;99.90
29003;DHT22;16102;57.138;-2.118;2023-03-31T11:49:25;10.30;99.90
29003;DHT22;16102;57.138;-2.118;2023-03-31T11:51:59;10.40;99.90
29003;DHT22;16102;57.138;-2.118;2023-03-31T12:00:02;10.40;99.90
29003;DHT22;16102;57.138;-2.118;2023-03-31T12:05:11;10.30;99.90
29003;DHT22;16102;57.138;-2.118;2023-03-31T12:10:38;10.30;99.90
29003;DHT22;16102;57.138;-2.118;2023-03-31T12:15:47;10.30;99.90
29003;DHT22;16102;57.138;-2.118;2023-03-31T12:18:21;10.40;99.90
29003;DHT22;16102;57.138;-2.118;2023-03-31T12:23:24;10.50;99.90
29003;DHT22;16102;57.138;-2.118;2023-03-31T12:28:43;10.40;99.90
29003;DHT22;16102;57.138;-2.118;2023-03-31T12:31:20;10.20;99.90
29003;DHT22;16102;57.138;-2.118;2023-03-31T12:34:03;10.20;99.90
29003;DHT22;16102;57.138;-2.118;2023-03-31T12:40:17;10.10;99.90
29003;DHT22;16102;57.138;-2.118;2023-03-31T12:43:10;10.00;99.90
29003;DHT22;16102;57.138;-2.118;2023-03-31T12:48:43;10.10;99.90
29003;DHT22;16102;57.138;-2.118;2023-03-31T12:59:37;9.80;99.90
29003;DHT22;16102;57.138;-2.118;2023-03-31T13:04:42;9.90;99.90
29003;DHT22;16102;57.138;-2.118;2023-03-31T13:12:39;9.90;99.90
29003;DHT22;16102;57.138;-2.118;2023-03-31T13:15:13;9.80;99.90
29003;DHT22;16102;57.138;-2.118;2023-03-31T13:17:55;9.70;99.90
29003;DHT22;16102;57.138;-2.118;2023-03-31T13:23:14;9.70;99.90
29003;DHT22;16102;57.138;-2.118;2023-03-31T13:25:44;9.80;99.90
29003;DHT22;16102;57.138;-2.118;2023-03-31T13:31:01;9.70;99.90
29003;DHT22;16102;57.138;-2.118;2023-03-31T13:33:53;9.80;99.90
29003;DHT22;16102;57.138;-2.118;2023-03-31T13:42:21;9.80;99.90
29003;DHT22;16102;57.138;-2.118;2023-03-31T13:50:48;9.90;99.90
29003;DHT22;16102;57.138;-2.118;2023-03-31T14:04:37;9.90;99.90
29003;DHT22;16102;57.138;-2.118;2023-03-31T14:07:20;9.90;99.90
29003;DHT22;16102;57.138;-2.118;2023-03-31T14:09:51;9.80;99.90
29003;DHT22;16102;57.138;-2.118;2023-03-31T14:12:32;9.80;99.90
29003;DHT22;16102;57.138;-2.118;2023-03-31T14:15:00;9.80;99.90
29003;DHT22;16102;57.138;-2.118;2023-03-31T14:17:38;9.90;99.90
29003;DHT22;16102;57.138;-2.118;2023-03-31T14:20:26;9.90;99.90
29003;DHT22;16102;57.138;-2.118;2023-03-31T14:26:04;9.80;99.90
29003;DHT22;16102;57.138;-2.118;2023-03-31T14:28:56;9.70;72.80
29003;DHT22;16102;57.138;-2.118;2023-03-31T14:36:38;9.70;43.10
29003;DHT22;16102;57.138;-2.118;2023-03-31T14:39:10;9.70;43.00
29003;DHT22;16102;57.138;-2.118;2023-03-31T14:41:37;9.70;53.10
29003;DHT22;16102;57.138;-2.118;2023-03-31T14:44:06;9.70;55.40
29003;DHT22;16102;57.138;-2.118;2023-03-31T14:46:37;9.60;56.10
29003;DHT22;16102;57.138;-2.118;2023-03-31T14:49:26;9.70;80.10
29003;DHT22;16102;57.138;-2.118;2023-03-31T14:51:59;9.60;71.10
29003;DHT22;16102;57.138;-2.118;2023-03-31T14:54:26;9.70;77.00
29003;DHT22;16102;57.138;-2.118;2023-03-31T14:56:55;9.60;72.90
29003;DHT22;16102;57.138;-2.118;2023-03-31T14:59:27;9.60;58.30
29003;DHT22;16102;57.138;-2.118;2023-03-31T15:01:57;9.60;70.70
29003;DHT22;16102;57.138;-2.118;2023-03-31T15:04:28;9.40;90.70
29003;DHT22;16102;57.138;-2.118;2023-03-31T15:07:08;9.40;99.90
29003;DHT22;16102;57.138;-2.118;2023-03-31T15:09:36;9.40;99.90
29003;DHT22;16102;57.138;-2.118;2023-03-31T15:12:14;9.40;99.90
29003;DHT22;16102;57.138;-2.118;2023-03-31T15:14:45;9.40;99.90
29003;DHT22;16102;57.138;-2.118;2023-03-31T15:17:29;9.40;99.90
29003;DHT22;16102;57.138;-2.118;2023-03-31T15:20:00;9.40;99.90
29003;DHT22;16102;57.138;-2.118;2023-03-31T15:22:30;9.40;99.90
29003;DHT22;16102;57.138;-2.118;2023-03-31T15:24:57;9.40;99.90
29003;DHT22;16102;57.138;-2.118;2023-03-31T15:27:34;9.20;99.00
29003;DHT22;16102;57.138;-2.118;2023-03-31T15:30:11;9.20;99.90
29003;DHT22;16102;57.138;-2.118;2023-03-31T15:32:41;9.30;85.00
29003;DHT22;16102;57.138;-2.118;2023-03-31T15:37:49;9.30;53.90
29003;DHT22;16102;57.138;-2.118;2023-03-31T15:40:25;9.30;32.70
29003;DHT22;16102;57.138;-2.118;2023-03-31T15:42:56;9.30;16.40
29003;DHT22;16102;57.138;-2.118;2023-03-31T15:48:00;9.40;11.90
29003;DHT22;16102;57.138;-2.118;2023-03-31T15:50:28;9.40;7.30
29003;DHT22;16102;57.138;-2.118;2023-03-31T15:52:55;9.40;5.60
29003;DHT22;16102;57.138;-2.118;2023-03-31T15:55:29;9.40;4.20
29003;DHT22;16102;57.138;-2.118;2023-03-31T15:57:59;9.40;1.00
29003;DHT22;16102;57.138;-2.118;2023-03-31T16:03:01;9.50;1.00
29003;DHT22;16102;57.138;-2.118;2023-03-31T16:06:04;9.50;1.00
29003;DHT22;16102;57.138;-2.118;2023-03-31T16:08:42;9.50;1.00
29003;DHT22;16102;57.138;-2.118;2023-03-31T16:11:23;9.40;2.60
29003;DHT22;16102;57.138;-2.118;2023-03-31T16:13:55;9.40;9.00
29003;DHT22;16102;57.138;-2.118;2023-03-31T16:16:24;9.30;15.60
29003;DHT22;16102;57.138;-2.118;2023-03-31T16:19:07;9.20;8.20
29003;DHT22;16102;57.138;-2.118;2023-03-31T16:21:44;9.10;14.70
29003;DHT22;16102;57.138;-2.118;2023-03-31T16:24:13;9.10;15.20
29003;DHT22;16102;57.138;-2.118;2023-03-31T16:26:41;9.10;1.00
29003;DHT22;16102;57.138;-2.118;2023-03-31T16:29:08;9.10;1.00
29003;DHT22;16102;57.138;-2.118;2023-03-31T16:31:45;9.00;1.00
29003;DHT22;16102;57.138;-2.118;2023-03-31T16:34:12;9.10;1.00
29003;DHT22;16102;57.138;-2.118;2023-03-31T16:36:39;9.10;1.00
29003;DHT22;16102;57.138;-2.118;2023-03-31T16:39:06;9.10;1.00
29003;DHT22;16102;57.138;-2.118;2023-03-31T16:41:35;9.10;1.00
29003;DHT22;16102;57.138;-2.118;2023-03-31T16:44:03;9.10;1.00
29003;DHT22;16102;57.138;-2.118;2023-03-31T16:46:32;9.10;1.00
29003;DHT22;16102;57.138;-2.118;2023-03-31T16:48:59;9.10;1.40
29003;DHT22;16102;57.138;-2.118;2023-03-31T16:51:26;9.10;15.70
29003;DHT22;16102;57.138;-2.118;2023-03-31T16:53:53;9.10;23.80
29003;DHT22;16102;57.138;-2.118;2023-03-31T16:56:24;9.00;25.10
29003;DHT22;16102;57.138;-2.118;2023-03-31T16:58:52;9.00;23.60
29003;DHT22;16102;57.138;-2.118;2023-03-31T17:01:20;9.00;16.60
29003;DHT22;16102;57.138;-2.118;2023-03-31T17:03:47;9.10;9.80
29003;DHT22;16102;57.138;-2.118;2023-03-31T17:06:14;9.00;1.00
29003;DHT22;16102;57.138;-2.118;2023-03-31T17:08:41;9.00;1.00
29003;DHT22;16102;57.138;-2.118;2023-03-31T17:11:12;8.90;1.00
29003;DHT22;16102;57.138;-2.118;2023-03-31T17:13:41;8.90;1.00
29003;DHT22;16102;57.138;-2.118;2023-03-31T17:16:09;8.90;1.00
29003;DHT22;16102;57.138;-2.118;2023-03-31T17:18:49;8.90;1.00
29003;DHT22;16102;57.138;-2.118;2023-03-31T17:21:17;8.80;1.00
29003;DHT22;16102;57.138;-2.118;2023-03-31T17:23:45;8.70;1.00
29003;DHT22;16102;57.138;-2.118;2023-03-31T17:26:13;8.80;1.00
29003;DHT22;16102;57.138;-2.118;2023-03-31T17:28:43;8.80;1.00
29003;DHT22;16102;57.138;-2.118;2023-03-31T17:31:20;8.80;1.00
29003;DHT22;16102;57.138;-2.118;2023-03-31T17:33:47;8.70;9.80
29003;DHT22;16102;57.138;-2.118;2023-03-31T17:36:14;8.60;13.60
29003;DHT22;16102;57.138;-2.118;2023-03-31T17:38:42;8.60;21.20
29003;DHT22;16102;57.138;-2.118;2023-03-31T17:41:11;8.60;30.50
29003;DHT22;16102;57.138;-2.118;2023-03-31T17:43:45;8.60;59.80
29003;DHT22;16102;57.138;-2.118;2023-03-31T17:46:16;8.60;73.10
29003;DHT22;16102;57.138;-2.118;2023-03-31T17:48:44;8.60;91.00
29003;DHT22;16102;57.138;-2.118;2023-03-31T17:51:14;8.60;99.90
29003;DHT22;16102;57.138;-2.118;2023-03-31T17:53:43;8.50;99.90
29003;DHT22;16102;57.138;-2.118;2023-03-31T17:56:11;8.50;99.90
29003;DHT22;16102;57.138;-2.118;2023-03-31T17:58:39;8.40;98.80
29003;DHT22;16102;57.138;-2.118;2023-03-31T18:01:08;8.40;99.80
29003;DHT22;16102;57.138;-2.118;2023-03-31T18:03:36;8.30;99.90
29003;DHT22;16102;57.138;-2.118;2023-03-31T18:06:08;8.40;99.90
29003;DHT22;16102;57.138;-2.118;2023-03-31T18:08:37;8.30;99.90
29003;DHT22;16102;57.138;-2.118;2023-03-31T18:11:05;8.30;99.90
29003;DHT22;16102;57.138;-2.118;2023-03-31T18:13:34;8.30;99.90
29003;DHT22;16102;57.138;-2.118;2023-03-31T18:16:02;8.30;99.90
29003;DHT22;16102;57.138;-2.118;2023-03-31T18:18:31;8.20;99.90
29003;DHT22;16102;57.138;-2.118;2023-03-31T18:21:05;8.20;99.90
29003;DHT22;16102;57.138;-2.118;2023-03-31T18:23:33;8.20;99.90
29003;DHT22;16102;57.138;-2.118;2023-03-31T18:26:01;8.20;99.90
29003;DHT22;16102;57.138;-2.118;2023-03-31T18:28:28;8.10;99.90
29003;DHT22;16102;57.138;-2.118;2023-03-31T18:30:55;8.10;99.90
29003;DHT22;16102;57.138;-2.118;2023-03-31T18:33:22;8.10;99.90
29003;DHT22;16102;57.138;-2.118;2023-03-31T18:35:49;8.10;99.90
29003;DHT22;16102;57.138;-2.118;2023-03-31T18:38:16;8.10;99.90
29003;DHT22;16102;57.138;-2.118;2023-03-31T18:40:50;8.10;99.90
29003;DHT22;16102;57.138;-2.118;2023-03-31T18:43:19;8.10;99.90
29003;DHT22;16102;57.138;-2.118;2023-03-31T18:45:54;8.00;99.90
29003;DHT22;16102;57.138;-2.118;2023-03-31T18:48:22;7.90;99.90
29003;DHT22;16102;57.138;-2.118;2023-03-31T18:50:50;7.90;99.90
29003;DHT22;16102;57.138;-2.118;2023-03-31T18:53:19;8.00;99.90
29003;DHT22;16102;57.138;-2.118;2023-03-31T18:55:51;7.90;99.90
29003;DHT22;16102;57.138;-2.118;2023-03-31T18:58:18;7.90;99.90
29003;DHT22;16102;57.138;-2.118;2023-03-31T19:00:45;7.90;99.90
29003;DHT22;16102;57.138;-2.118;2023-03-31T19:03:13;7.90;99.90
29003;DHT22;16102;57.138;-2.118;2023-03-31T19:05:40;7.90;99.90